Time;durP1;ratioP1;P1;durP2;ratioP2;P2;SDS_P1;SDS_P2;PMS_P1;PMS_P2;Temp;Humidity;BMP_temperature;BMP_pressure;BME280_temperature;BME280_humidity;BME280_pressure;Samples;Min_cycle;Max_cycle;Signal;HPM_P1;HPM_P2
2022/11/08 00:02:20;;;;;;;13.43;3.72;;;12.40;90.20;;;;;;5006160;28;20057;-78
2022/11/08 00:04:46;;;;;;;13.48;2.97;;;12.40;35.50;;;;;;5003903;28;20401;-79
2022/11/08 00:15:24;;;;;;;12.13;2.70;;;12.40;50.10;;;;;;5016227;28;20413;-78
2022/11/08 00:17:49;;;;;;;10.52;2.88;;;12.40;28.60;;;;;;5012655;28;20031;-78
2022/11/08 00:20:15;;;;;;;9.77;2.67;;;12.40;1.00;;;;;;4996635;28;20026;-78
2022/11/08 00:22:41;;;;;;;13.57;2.85;;;12.40;12.80;;;;;;4996416;28;20034;-78
2022/11/08 00:25:07;;;;;;;7.65;2.35;;;12.40;1.00;;;;;;4997644;28;20022;-79
2022/11/08 00:27:33;;;;;;;10.82;2.88;;;12.40;13.40;;;;;;4997166;28;20027;-79
2022/11/08 00:29:58;;;;;;;10.30;3.10;;;12.40;1.00;;;;;;5009548;28;20515;-79
2022/11/08 00:32:25;;;;;;;12.55;2.95;;;12.40;12.30;;;;;;5006640;28;20022;-78
2022/11/08 00:34:51;;;;;;;10.65;3.08;;;12.40;5.00;;;;;;5016325;28;20026;-79
2022/11/08 00:37:19;;;;;;;13.15;3.35;;;12.40;1.00;;;;;;5010182;28;20065;-79
2022/11/08 00:39:45;;;;;;;11.70;2.90;;;12.40;1.00;;;;;;5015768;28;20034;-79
2022/11/08 00:42:11;;;;;;;8.82;2.60;;;12.30;7.40;;;;;;5016099;28;20101;-79
2022/11/08 00:44:37;;;;;;;12.25;2.40;;;12.30;1.00;;;;;;5015630;28;20100;-78
2022/11/08 00:47:03;;;;;;;7.47;1.92;;;12.20;6.20;;;;;;5016556;28;20045;-78
2022/11/08 00:49:29;;;;;;;7.65;2.53;;;12.20;24.30;;;;;;5017012;28;20101;-79
2022/11/08 00:51:54;;;;;;;12.32;2.85;;;12.10;26.60;;;;;;5019342;28;20472;-78
2022/11/08 00:54:20;;;;;;;6.72;2.38;;;12.10;49.40;;;;;;5019464;28;20089;-78
2022/11/08 00:56:47;;;;;;;12.15;2.70;;;12.00;90.70;;;;;;5008122;28;20014;-78
2022/11/08 00:59:15;;;;;;;10.63;2.25;;;12.00;99.90;;;;;;5019656;28;20022;-79
2022/11/08 01:01:41;;;;;;;8.23;2.42;;;11.90;99.90;;;;;;5020149;28;20020;-78
2022/11/08 01:04:09;;;;;;;11.77;3.35;;;12.00;74.80;;;;;;5019915;28;20123;-79
2022/11/08 01:06:35;;;;;;;7.78;2.65;;;11.90;89.00;;;;;;5020025;28;20145;-79
2022/11/08 01:09:01;;;;;;;8.10;3.13;;;11.80;99.90;;;;;;5019620;28;20045;-79
2022/11/08 01:11:27;;;;;;;9.52;2.35;;;11.70;99.90;;;;;;5019573;28;20455;-78
2022/11/08 01:13:56;;;;;;;9.48;2.42;;;11.70;99.90;;;;;;5018792;28;20549;-78
2022/11/08 01:16:25;;;;;;;12.30;2.58;;;11.70;99.90;;;;;;5019547;28;20108;-79
2022/11/08 01:18:53;;;;;;;9.23;2.65;;;11.70;99.90;;;;;;5017318;28;20026;-78
2022/11/08 01:21:19;;;;;;;8.82;2.58;;;11.50;99.90;;;;;;4999106;28;20038;-78
2022/11/08 01:23:45;;;;;;;9.68;2.35;;;11.70;99.90;;;;;;4999870;28;20110;-79
2022/11/08 01:26:30;;;;;;;11.15;2.80;;;11.80;99.90;;;;;;5000202;28;20024;-79
2022/11/08 01:28:57;;;;;;;14.07;2.38;;;11.80;99.90;;;;;;5004990;28;20484;-78
2022/11/08 01:31:26;;;;;;;9.13;2.58;;;11.90;99.90;;;;;;5013459;28;20469;-79
2022/11/08 01:33:52;;;;;;;7.50;2.28;;;11.80;67.30;;;;;;4999368;28;20073;-79
2022/11/08 01:36:23;;;;;;;8.88;2.55;;;12.00;21.80;;;;;;5013012;28;20030;-79
2022/11/08 01:38:49;;;;;;;;;;;11.90;1.00;;;;;;5002114;28;20033;-79
2022/11/08 01:41:16;;;;;;;8.30;2.53;;;11.90;8.90;;;;;;5013843;28;19909;-79
2022/11/08 01:43:56;;;;;;;9.25;2.88;;;12.00;1.00;;;;;;5018951;28;20026;-78
2022/11/08 01:46:28;;;;;;;7.75;3.08;;;11.70;39.50;;;;;;5019171;28;20046;-78
2022/11/08 01:49:15;;;;;;;10.05;2.30;;;11.60;99.90;;;;;;5017524;28;20026;-78
2022/11/08 01:51:51;;;;;;;9.38;2.25;;;11.50;99.90;;;;;;5002747;28;20030;-78
2022/11/08 01:54:29;;;;;;;7.38;2.20;;;11.40;99.90;;;;;;5018932;28;20029;-78
2022/11/08 01:56:56;;;;;;;11.82;2.63;;;11.50;99.90;;;;;;5019018;28;20041;-78
2022/11/08 01:59:22;;;;;;;9.38;2.47;;;11.30;99.90;;;;;;5018839;28;20447;-78
2022/11/08 02:01:48;;;;;;;6.55;2.10;;;11.50;99.90;;;;;;5010163;28;20114;-78
2022/11/08 02:04:15;;;;;;;5.68;1.73;;;11.20;99.90;;;;;;4998772;28;20108;-78
2022/11/08 02:06:42;;;;;;;8.27;2.10;;;11.20;99.90;;;;;;5014177;28;20088;-78
2022/11/08 02:09:10;;;;;;;11.93;2.53;;;11.30;99.90;;;;;;5009323;28;20022;-79
2022/11/08 02:11:37;;;;;;;8.15;2.13;;;11.20;99.90;;;;;;5010096;28;20041;-78
2022/11/08 02:14:03;;;;;;;8.85;2.10;;;11.10;99.90;;;;;;5001079;28;20046;-78
2022/11/08 02:16:29;;;;;;;9.88;2.45;;;11.00;99.90;;;;;;5018020;28;20101;-78
2022/11/08 02:18:55;;;;;;;11.10;2.28;;;10.90;99.90;;;;;;5015337;28;20058;-76
2022/11/08 02:21:36;;;;;;;8.20;2.53;;;11.00;99.90;;;;;;5002324;28;20041;-76
2022/11/08 02:24:12;;;;;;;9.00;2.40;;;10.90;99.90;;;;;;5004235;28;20018;-76
2022/11/08 02:26:38;;;;;;;9.60;2.83;;;10.90;99.90;;;;;;5015217;28;20033;-76
2022/11/08 02:29:25;;;;;;;9.43;2.30;;;10.80;99.90;;;;;;5015197;28;20080;-76
2022/11/08 02:31:51;;;;;;;7.68;2.30;;;10.90;99.90;;;;;;5015014;28;20420;-76
2022/11/08 02:34:19;;;;;;;6.57;2.08;;;10.80;99.90;;;;;;5014906;28;20112;-76
2022/11/08 02:36:47;;;;;;;6.38;2.00;;;10.70;99.90;;;;;;5015014;28;20112;-76
2022/11/08 02:39:12;;;;;;;7.25;1.98;;;10.70;99.90;;;;;;5014874;28;20141;-76
2022/11/08 02:41:38;;;;;;;10.05;2.72;;;10.70;99.90;;;;;;5014883;28;20049;-76
2022/11/08 02:44:03;;;;;;;6.40;2.00;;;10.70;99.90;;;;;;5014783;28;20029;-76
2022/11/08 02:46:29;;;;;;;9.23;2.75;;;10.70;99.90;;;;;;5015113;28;20029;-75
2022/11/08 02:48:55;;;;;;;8.13;2.38;;;10.90;99.90;;;;;;5014910;28;20033;-78
2022/11/08 02:51:21;;;;;;;5.45;1.85;;;10.70;99.90;;;;;;5015386;28;20537;-78
2022/11/08 02:53:47;;;;;;;8.45;2.22;;;10.80;99.90;;;;;;5008240;28;20041;-78
2022/11/08 02:56:13;;;;;;;8.18;2.15;;;10.80;99.90;;;;;;5004453;28;20385;-78
2022/11/08 02:59:13;;;;;;;7.57;2.08;;;10.70;99.90;;;;;;5017038;28;20018;-78
2022/11/08 03:01:39;;;;;;;;;;;10.80;99.90;;;;;;5013992;28;20411;-78
2022/11/08 03:04:04;;;;;;;5.60;2.03;;;10.50;99.90;;;;;;5016887;28;20371;-78
2022/11/08 03:06:30;;;;;;;8.38;2.30;;;10.70;99.90;;;;;;5017047;28;20026;-78
2022/11/08 03:08:56;;;;;;;4.25;1.70;;;10.70;99.90;;;;;;5010136;28;20429;-78
2022/11/08 03:11:21;;;;;;;5.32;1.77;;;10.70;99.90;;;;;;5006761;28;20021;-78
2022/11/08 03:13:47;;;;;;;6.53;2.45;;;10.80;99.90;;;;;;5015226;28;20153;-78
2022/11/08 03:16:12;;;;;;;7.07;2.00;;;10.70;99.90;;;;;;4999983;28;20031;-78
2022/11/08 03:18:38;;;;;;;7.68;2.47;;;10.80;99.90;;;;;;5015997;28;20496;-78
2022/11/08 03:21:04;;;;;;;6.10;1.98;;;10.90;99.90;;;;;;5016702;28;20400;-78
2022/11/08 03:24:07;;;;;;;8.60;1.95;;;10.80;99.90;;;;;;5013341;28;20068;-78
2022/11/08 03:26:32;;;;;;;8.35;2.40;;;10.80;99.90;;;;;;5006268;28;20029;-78
2022/11/08 03:28:58;;;;;;;6.57;1.73;;;10.80;99.90;;;;;;5001948;28;20025;-78
2022/11/08 03:31:23;;;;;;;7.05;1.75;;;10.90;99.90;;;;;;5016626;28;20018;-79
2022/11/08 03:33:49;;;;;;;9.98;2.00;;;10.80;99.90;;;;;;5005659;28;20034;-78
2022/11/08 03:36:14;;;;;;;6.75;2.00;;;10.70;99.90;;;;;;4997885;28;20041;-78
2022/11/08 03:38:40;;;;;;;9.07;2.42;;;10.70;99.90;;;;;;4997653;28;20018;-78
2022/11/08 03:41:06;;;;;;;5.90;2.40;;;10.50;99.90;;;;;;4996467;28;20022;-78
2022/11/08 03:43:31;;;;;;;7.30;2.17;;;10.60;99.90;;;;;;4996664;28;20046;-78
2022/11/08 03:45:57;;;;;;;10.85;2.15;;;10.60;99.90;;;;;;5004473;28;20014;-78
2022/11/08 03:48:22;;;;;;;5.60;1.77;;;10.60;99.90;;;;;;4996400;28;20025;-78
2022/11/08 03:50:50;;;;;;;8.43;2.42;;;10.60;99.90;;;;;;5005252;28;20025;-78
2022/11/08 03:53:16;;;;;;;6.68;2.03;;;10.60;99.90;;;;;;5015773;28;20017;-78
2022/11/08 03:55:41;;;;;;;3.88;1.83;;;10.60;99.90;;;;;;5016105;28;20037;-78
2022/11/08 03:58:07;;;;;;;7.15;2.00;;;10.60;99.90;;;;;;5014085;28;20069;-78
2022/11/08 04:00:33;;;;;;;7.25;2.28;;;10.70;99.90;;;;;;5006144;28;20073;-78
2022/11/08 04:03:01;;;;;;;6.63;2.05;;;10.50;99.90;;;;;;4996510;28;20452;-78
2022/11/08 04:05:27;;;;;;;5.20;1.70;;;10.40;99.90;;;;;;4995837;28;20496;-78
2022/11/08 04:07:53;;;;;;;3.58;1.85;;;10.40;99.90;;;;;;4995874;28;20030;-78
2022/11/08 04:10:18;;;;;;;9.88;2.33;;;10.30;99.90;;;;;;4996001;28;20026;-78
2022/11/08 04:15:30;;;;;;;6.05;2.08;;;10.20;99.90;;;;;;5008679;28;20453;-78
2022/11/08 04:23:30;;;;;;;8.32;2.42;;;10.20;99.90;;;;;;5015491;28;20076;-78
2022/11/08 04:25:59;;;;;;;8.77;2.10;;;10.20;99.90;;;;;;5013738;28;20430;-78
2022/11/08 04:28:35;;;;;;;9.52;3.15;;;10.10;1.00;;;;;;5000869;28;20022;-78
2022/11/08 04:31:04;;;;;;;6.55;2.50;;;10.20;1.00;;;;;;5014599;28;20034;-78
2022/11/08 04:33:30;;;;;;;9.70;2.30;;;10.20;1.00;;;;;;5019552;28;20022;-78
2022/11/08 04:36:00;;;;;;;8.52;2.53;;;10.20;1.00;;;;;;5019783;28;20083;-78
2022/11/08 04:38:26;;;;;;;7.72;2.00;;;10.10;1.00;;;;;;5019923;28;20029;-78
2022/11/08 04:40:52;;;;;;;9.30;2.30;;;10.10;1.00;;;;;;5019289;28;20030;-78
2022/11/08 04:43:17;;;;;;;4.40;2.22;;;10.10;1.00;;;;;;5019547;28;20025;-78
2022/11/08 04:45:43;;;;;;;6.72;2.10;;;10.10;1.00;;;;;;5011022;28;20101;-78
2022/11/08 04:48:08;;;;;;;9.50;2.60;;;10.20;1.00;;;;;;5013829;28;20022;-78
2022/11/08 04:50:35;;;;;;;5.57;2.42;;;10.00;1.00;;;;;;5018629;28;20021;-78
2022/11/08 04:53:00;;;;;;;5.32;2.45;;;10.00;1.00;;;;;;5019475;28;20437;-78
2022/11/08 04:55:26;;;;;;;9.85;2.85;;;10.00;1.00;;;;;;5012538;28;20121;-78
2022/11/08 04:57:56;;;;;;;9.15;3.17;;;10.00;1.00;;;;;;5001234;28;20030;-78
2022/11/08 05:00:21;;;;;;;6.00;2.42;;;9.90;1.00;;;;;;5014720;28;20022;-78
2022/11/08 05:02:47;;;;;;;10.48;2.50;;;9.90;1.00;;;;;;5001801;28;20401;-78
2022/11/08 05:05:12;;;;;;;9.73;2.17;;;9.90;1.00;;;;;;4998582;28;20034;-78
2022/11/08 05:07:38;;;;;;;10.02;2.70;;;9.80;1.00;;;;;;4998485;28;20093;-78
2022/11/08 05:10:04;;;;;;;9.07;2.00;;;10.10;1.00;;;;;;4998862;28;20022;-78
2022/11/08 05:12:30;;;;;;;9.13;2.40;;;10.00;1.00;;;;;;4998651;28;20026;-78
2022/11/08 05:14:55;;;;;;;6.15;2.08;;;10.00;1.00;;;;;;4998930;28;20362;-78
2022/11/08 05:17:21;;;;;;;7.13;2.45;;;9.90;1.00;;;;;;4999878;28;20026;-79
2022/11/08 05:25:17;;;;;;;9.63;2.60;;;10.00;1.00;;;;;;5012942;28;20115;-79
2022/11/08 05:27:42;;;;;;;5.03;2.50;;;10.00;1.00;;;;;;5010525;28;20030;-78
2022/11/08 05:30:09;;;;;;;5.75;2.38;;;10.10;1.00;;;;;;5010173;28;20496;-77
2022/11/08 05:32:35;;;;;;;6.10;2.35;;;10.10;1.00;;;;;;5006035;28;20072;-77
2022/11/08 05:35:00;;;;;;;6.60;2.70;;;10.20;1.00;;;;;;5004132;28;20551;-77
2022/11/08 05:37:26;;;;;;;8.70;2.88;;;10.20;1.00;;;;;;5015318;28;20456;-77
2022/11/08 05:39:51;;;;;;;7.57;2.47;;;10.10;1.00;;;;;;5015989;28;20022;-77
2022/11/08 05:42:17;;;;;;;5.28;2.30;;;10.10;1.00;;;;;;5015935;28;20061;-77
2022/11/08 05:44:43;;;;;;;8.23;2.60;;;10.20;1.00;;;;;;5003647;28;20413;-77
2022/11/08 05:47:08;;;;;;;4.35;1.92;;;10.30;1.00;;;;;;4999732;28;20093;-77
2022/11/08 05:49:34;;;;;;;5.07;2.13;;;10.10;1.00;;;;;;4997727;28;20052;-77
2022/11/08 05:51:59;;;;;;;7.95;2.28;;;10.00;1.00;;;;;;4996265;28;20049;-77
2022/11/08 05:54:25;;;;;;;5.53;2.60;;;10.10;1.00;;;;;;5010627;28;20395;-77
2022/11/08 05:56:50;;;;;;;7.57;2.58;;;10.10;1.00;;;;;;5004658;28;20022;-77
2022/11/08 05:59:16;;;;;;;7.88;2.60;;;10.10;1.00;;;;;;5002777;28;20027;-77
2022/11/08 06:01:42;;;;;;;8.25;2.50;;;10.10;1.00;;;;;;4998475;28;20030;-77
2022/11/08 06:04:07;;;;;;;7.60;2.22;;;10.20;1.00;;;;;;5009385;28;20092;-77
2022/11/08 06:06:33;;;;;;;5.93;1.98;;;10.10;99.90;;;;;;5010248;28;20053;-77
2022/11/08 06:08:58;;;;;;;7.53;2.50;;;10.20;99.90;;;;;;5010815;28;20026;-77
2022/11/08 06:11:26;;;;;;;5.32;2.22;;;10.20;99.90;;;;;;4998131;28;20046;-77
2022/11/08 06:13:53;;;;;;;4.88;2.85;;;10.20;99.90;;;;;;5004624;28;20475;-77
2022/11/08 06:16:20;;;;;;;11.02;3.35;;;10.10;99.90;;;;;;5013796;28;20018;-77
2022/11/08 06:18:46;;;;;;;8.40;3.03;;;10.00;99.90;;;;;;5005616;28;20077;-77
2022/11/08 06:21:14;;;;;;;4.25;2.33;;;10.20;99.90;;;;;;5005148;28;20025;-77
2022/11/08 06:23:41;;;;;;;8.73;2.67;;;10.20;99.90;;;;;;5013726;28;20365;-77
2022/11/08 06:26:07;;;;;;;6.10;2.40;;;10.40;99.90;;;;;;5002739;28;20072;-77
2022/11/08 06:28:34;;;;;;;8.38;2.42;;;10.30;99.90;;;;;;5006989;28;20072;-77
2022/11/08 06:31:01;;;;;;;9.43;2.45;;;10.30;99.90;;;;;;5003215;28;20049;-77
2022/11/08 06:33:28;;;;;;;6.85;2.90;;;10.30;99.90;;;;;;5008872;28;20101;-77
2022/11/08 06:35:53;;;;;;;5.30;1.90;;;10.30;99.90;;;;;;5003533;28;20568;-77
2022/11/08 06:38:19;;;;;;;7.25;2.28;;;10.40;99.90;;;;;;5006391;28;20017;-77
2022/11/08 06:40:45;;;;;;;6.18;2.30;;;10.20;99.90;;;;;;5001408;28;20057;-77
2022/11/08 06:43:11;;;;;;;4.72;1.92;;;10.40;99.90;;;;;;5001158;28;20493;-76
2022/11/08 06:45:37;;;;;;;5.63;2.40;;;10.30;99.90;;;;;;5006952;28;20060;-77
2022/11/08 06:48:05;;;;;;;5.22;2.00;;;10.30;99.90;;;;;;5005123;28;20037;-77
2022/11/08 06:50:32;;;;;;;7.78;2.60;;;10.30;99.90;;;;;;5009014;28;20021;-77
2022/11/08 06:53:00;;;;;;;8.15;2.95;;;10.30;99.90;;;;;;5004567;28;20080;-77
2022/11/08 06:55:26;;;;;;;7.40;2.05;;;10.30;99.90;;;;;;4994489;28;20030;-77
2022/11/08 06:57:52;;;;;;;5.05;2.28;;;10.30;99.90;;;;;;4997262;28;20026;-77
2022/11/08 07:00:18;;;;;;;8.63;2.33;;;10.30;99.90;;;;;;5001647;28;20045;-77
2022/11/08 07:02:44;;;;;;;6.50;2.40;;;10.20;99.90;;;;;;4995804;28;20030;-77
2022/11/08 07:05:11;;;;;;;4.75;1.77;;;10.30;12.90;;;;;;4998164;28;20025;-77
2022/11/08 07:07:36;;;;;;;7.07;2.20;;;10.30;41.70;;;;;;5008257;28;20038;-77
2022/11/08 07:10:04;;;;;;;3.88;2.10;;;10.30;22.50;;;;;;4997784;28;20026;-77
2022/11/08 07:12:29;;;;;;;4.65;2.25;;;10.30;1.00;;;;;;5008306;28;20018;-77
2022/11/08 07:14:55;;;;;;;5.82;2.33;;;10.30;1.00;;;;;;5010117;28;20037;-77
2022/11/08 07:17:20;;;;;;;3.72;1.77;;;10.40;1.00;;;;;;5002882;28;20127;-77
2022/11/08 07:19:46;;;;;;;5.82;1.80;;;10.30;1.00;;;;;;5005090;28;20027;-77
2022/11/08 07:22:11;;;;;;;5.70;2.10;;;10.40;1.00;;;;;;5004027;28;20073;-77
2022/11/08 07:24:37;;;;;;;5.47;1.95;;;10.40;1.00;;;;;;5010062;28;20061;-77
2022/11/08 07:27:03;;;;;;;4.78;1.98;;;10.50;1.00;;;;;;5007503;28;20024;-77
2022/11/08 07:29:28;;;;;;;6.95;2.58;;;10.50;1.00;;;;;;5007931;28;20076;-77
2022/11/08 07:31:54;;;;;;;3.28;1.70;;;10.40;1.00;;;;;;5002149;28;20456;-77
2022/11/08 07:34:19;;;;;;;3.42;1.70;;;10.40;1.00;;;;;;5006205;28;20022;-77
2022/11/08 07:36:45;;;;;;;3.08;1.77;;;10.40;1.00;;;;;;5001287;28;20081;-77
2022/11/08 07:39:11;;;;;;;6.70;2.05;;;10.50;99.90;;;;;;5004469;28;20025;-77
2022/11/08 07:41:37;;;;;;;10.23;2.00;;;10.60;99.90;;;;;;5001496;28;20024;-77
2022/11/08 07:44:02;;;;;;;8.77;3.00;;;10.60;99.90;;;;;;5009275;28;20037;-77
2022/11/08 07:46:28;;;;;;;3.03;1.70;;;10.80;99.90;;;;;;5004637;28;20029;-77
2022/11/08 07:48:53;;;;;;;3.95;1.70;;;10.70;99.90;;;;;;5001122;28;20030;-77
2022/11/08 07:51:19;;;;;;;2.92;1.90;;;10.90;99.90;;;;;;4994573;28;20026;-77
2022/11/08 07:53:45;;;;;;;5.03;1.65;;;11.00;99.90;;;;;;5007346;28;20473;-77
2022/11/08 07:56:11;;;;;;;4.80;2.03;;;11.10;99.90;;;;;;5004407;28;20025;-77
2022/11/08 07:58:37;;;;;;;4.65;1.90;;;11.30;99.90;;;;;;5006012;28;20026;-77
2022/11/08 08:01:03;;;;;;;3.30;1.90;;;11.40;99.90;;;;;;4997109;28;20029;-77
2022/11/08 08:03:29;;;;;;;5.75;1.83;;;11.60;99.90;;;;;;5005270;28;20135;-77
2022/11/08 08:05:55;;;;;;;6.55;2.00;;;13.10;99.90;;;;;;5003549;28;20521;-77
2022/11/08 08:08:21;;;;;;;2.88;1.50;;;13.80;53.30;;;;;;4997845;28;20054;-77
2022/11/08 08:10:46;;;;;;;2.63;1.70;;;13.90;52.00;;;;;;5003451;28;20040;-77
2022/11/08 08:13:12;;;;;;;4.63;1.80;;;15.10;12.80;;;;;;5013442;28;20121;-77
2022/11/08 08:15:38;;;;;;;5.40;1.70;;;15.40;1.00;;;;;;5012931;28;20037;-77
2022/11/08 08:18:06;;;;;;;2.90;1.58;;;16.20;1.00;;;;;;5002222;28;20054;-77
2022/11/08 08:20:32;;;;;;;4.95;1.90;;;16.30;1.00;;;;;;4998190;28;20018;-77
2022/11/08 08:22:58;;;;;;;2.67;1.42;;;15.90;1.00;;;;;;4995028;28;20061;-77
2022/11/08 08:25:25;;;;;;;2.78;1.30;;;16.00;1.00;;;;;;4992960;28;20030;-77
2022/11/08 08:27:54;;;;;;;5.20;1.45;;;15.80;1.00;;;;;;4995155;28;20018;-77
2022/11/08 08:30:20;;;;;;;4.25;1.70;;;15.30;1.00;;;;;;4999781;28;20053;-77
2022/11/08 08:32:47;;;;;;;5.60;1.80;;;14.80;1.00;;;;;;4998860;28;20033;-77
2022/11/08 08:35:13;;;;;;;2.05;1.23;;;14.30;1.00;;;;;;4992256;28;20038;-77
2022/11/08 08:37:39;;;;;;;4.78;1.48;;;14.30;1.00;;;;;;4999434;28;20022;-77
2022/11/08 08:40:06;;;;;;;2.33;1.40;;;13.90;1.00;;;;;;4992757;28;20397;-77
2022/11/08 08:42:32;;;;;;;3.03;1.48;;;13.50;1.00;;;;;;4999005;28;20536;-77
2022/11/08 08:44:58;;;;;;;4.93;1.50;;;13.40;7.20;;;;;;4993240;28;20030;-77
2022/11/08 08:47:24;;;;;;;3.40;1.60;;;13.20;25.70;;;;;;4998748;28;20087;-77
2022/11/08 08:49:49;;;;;;;2.40;1.42;;;13.10;27.40;;;;;;5004052;28;20023;-77
2022/11/08 08:52:15;;;;;;;4.40;1.70;;;13.00;55.00;;;;;;4994641;28;20480;-77
2022/11/08 08:54:41;;;;;;;2.05;1.27;;;12.90;29.20;;;;;;4997580;28;20031;-77
2022/11/08 08:57:06;;;;;;;3.95;1.50;;;12.80;57.70;;;;;;4997217;28;20033;-77
2022/11/08 08:59:32;;;;;;;2.20;1.30;;;12.80;62.80;;;;;;4994515;28;20030;-77
2022/11/08 09:01:59;;;;;;;2.67;1.80;;;12.70;58.20;;;;;;4994720;28;20029;-77
2022/11/08 09:04:26;;;;;;;2.15;1.50;;;13.00;50.50;;;;;;4995528;28;20154;-77
2022/11/08 09:06:51;;;;;;;7.00;2.30;;;12.70;83.60;;;;;;4998716;28;20039;-77
2022/11/08 09:09:17;;;;;;;3.40;1.73;;;12.70;65.60;;;;;;5004057;28;20023;-77
2022/11/08 09:11:42;;;;;;;3.13;2.00;;;12.70;48.30;;;;;;5005256;28;20101;-77
2022/11/08 09:14:08;;;;;;;3.47;1.52;;;12.80;93.90;;;;;;5003361;28;20050;-77
2022/11/08 09:16:34;;;;;;;2.20;1.45;;;12.90;48.30;;;;;;5002705;28;20018;-78
2022/11/08 09:19:00;;;;;;;3.33;1.65;;;13.00;73.80;;;;;;5012407;28;20018;-77
2022/11/08 09:21:25;;;;;;;2.50;1.45;;;13.10;69.50;;;;;;5009445;28;20105;-78
2022/11/08 09:23:51;;;;;;;3.08;1.58;;;12.90;36.60;;;;;;5008673;28;20026;-78
2022/11/08 09:26:16;;;;;;;3.53;1.65;;;13.00;57.90;;;;;;5011924;28;20468;-78
2022/11/08 09:28:42;;;;;;;5.05;1.90;;;13.00;49.80;;;;;;5012209;28;20018;-78
2022/11/08 09:31:10;;;;;;;2.60;1.63;;;13.30;40.30;;;;;;5004240;28;20480;-78
2022/11/08 09:33:37;;;;;;;5.00;1.85;;;13.10;30.60;;;;;;5013289;28;20061;-78
2022/11/08 09:36:04;;;;;;;3.58;2.03;;;13.20;45.50;;;;;;5011264;28;20121;-78
2022/11/08 09:38:30;;;;;;;2.97;1.48;;;13.10;23.00;;;;;;5011303;28;20026;-78
2022/11/08 09:41:07;;;;;;;4.38;1.60;;;13.10;11.30;;;;;;5000270;28;20395;-77
2022/11/08 09:43:54;;;;;;;6.50;1.67;;;13.20;31.70;;;;;;5017511;28;20539;-77
2022/11/08 09:46:47;;;;;;;3.75;1.60;;;13.10;26.70;;;;;;5016118;28;20050;-77
2022/11/08 09:49:19;;;;;;;2.38;1.75;;;13.00;22.10;;;;;;5014627;28;20018;-77
2022/11/08 09:51:46;;;;;;;4.78;1.48;;;12.90;47.00;;;;;;5002099;28;20117;-77
2022/11/08 09:54:22;;;;;;;2.67;1.55;;;12.90;24.80;;;;;;5004331;28;20033;-77
2022/11/08 09:56:50;;;;;;;3.28;1.60;;;13.00;21.80;;;;;;5015858;28;20022;-77
2022/11/08 09:59:24;;;;;;;2.25;1.55;;;13.00;52.50;;;;;;5016086;28;20026;-78
2022/11/08 10:01:50;;;;;;;3.05;1.73;;;13.00;34.20;;;;;;5015122;28;20076;-78
2022/11/08 10:04:20;;;;;;;3.17;1.75;;;13.00;26.40;;;;;;4999077;28;20038;-78
2022/11/08 10:06:54;;;;;;;3.70;1.58;;;12.80;8.20;;;;;;5011389;28;20026;-78
2022/11/08 10:09:47;;;;;;;3.40;2.03;;;12.90;16.20;;;;;;5002007;28;20048;-78
2022/11/08 10:12:50;;;;;;;4.15;1.70;;;12.80;28.70;;;;;;4995500;28;20033;-77
2022/11/08 10:15:44;;;;;;;3.95;1.60;;;12.80;30.20;;;;;;4999000;28;20042;-78
2022/11/08 10:18:39;;;;;;;3.90;1.65;;;12.80;20.00;;;;;;5004942;28;20439;-78
2022/11/08 10:21:23;;;;;;;3.45;1.52;;;12.80;26.60;;;;;;4982958;28;20521;-78
2022/11/08 10:24:07;;;;;;;4.47;1.70;;;12.80;18.20;;;;;;5008970;28;20072;-78
2022/11/08 10:26:36;;;;;;;4.40;1.85;;;12.80;13.20;;;;;;5007609;28;20144;-78
2022/11/08 10:29:20;;;;;;;3.65;1.55;;;12.90;34.00;;;;;;5013461;28;20052;-78
2022/11/08 10:31:57;;;;;;;5.70;2.00;;;13.00;20.20;;;;;;5006515;28;20393;-78
2022/11/08 10:34:31;;;;;;;4.00;1.55;;;13.10;15.90;;;;;;5001543;28;20068;-77
2022/11/08 10:37:02;;;;;;;3.42;1.60;;;13.10;11.50;;;;;;4999932;28;20033;-77
2022/11/08 10:39:33;;;;;;;2.53;1.60;;;13.10;18.60;;;;;;5002105;28;20022;-76
2022/11/08 10:42:12;;;;;;;2.33;1.45;;;13.40;22.00;;;;;;5002182;28;20034;-77
2022/11/08 10:44:40;;;;;;;3.63;2.10;;;13.50;7.00;;;;;;4997256;28;20018;-78
2022/11/08 10:47:24;;;;;;;4.90;1.73;;;13.50;10.10;;;;;;5006038;28;20030;-78
2022/11/08 10:49:51;;;;;;;6.35;1.90;;;13.60;1.00;;;;;;5001279;28;20127;-78
2022/11/08 10:52:31;;;;;;;5.85;1.77;;;13.50;6.80;;;;;;5008399;28;20030;-78
2022/11/08 10:54:58;;;;;;;4.13;1.85;;;13.50;1.00;;;;;;5002150;28;20097;-78
2022/11/08 10:57:38;;;;;;;4.00;1.67;;;13.60;1.40;;;;;;5001231;28;20026;-79
2022/11/08 11:00:18;;;;;;;3.47;1.20;;;13.80;1.50;;;;;;5010089;28;20088;-79
2022/11/08 11:02:49;;;;;;;3.90;1.58;;;14.00;1.00;;;;;;5009129;28;20093;-77
2022/11/08 11:05:14;;;;;;;;;;;14.00;1.00;;;;;;5000947;28;20021;-78
2022/11/08 11:07:43;;;;;;;2.70;1.58;;;14.00;1.00;;;;;;5003188;28;19940;-78
2022/11/08 11:10:26;;;;;;;2.65;1.40;;;14.00;1.00;;;;;;5000750;28;20033;-77
2022/11/08 11:13:04;;;;;;;2.88;1.63;;;14.00;1.00;;;;;;4996269;28;20582;-77
2022/11/08 11:15:32;;;;;;;2.88;1.40;;;14.00;1.00;;;;;;4997022;28;20477;-77
2022/11/08 11:17:57;;;;;;;4.10;1.60;;;14.00;1.00;;;;;;5007299;28;20045;-77
2022/11/08 11:20:23;;;;;;;3.08;1.35;;;14.00;1.00;;;;;;5006446;28;20428;-78
2022/11/08 11:22:50;;;;;;;2.00;1.80;;;14.20;1.00;;;;;;5007678;28;20160;-77
2022/11/08 11:25:23;;;;;;;3.42;1.10;;;14.40;1.00;;;;;;5007213;28;20021;-77
2022/11/08 11:27:57;;;;;;;4.35;1.73;;;14.60;1.00;;;;;;5008346;28;20022;-77
2022/11/08 11:30:31;;;;;;;1.35;1.13;;;14.80;1.00;;;;;;4998583;28;20109;-77
2022/11/08 11:33:18;;;;;;;4.28;1.80;;;15.10;1.00;;;;;;4996836;28;20452;-77
2022/11/08 11:35:48;;;;;;;2.85;1.70;;;15.10;1.00;;;;;;4996471;28;20026;-78
2022/11/08 11:38:29;;;;;;;;;;;15.00;1.00;;;;;;4999423;28;20038;-77
2022/11/08 11:40:59;;;;;;;3.95;1.50;;;15.10;1.00;;;;;;5001039;28;20008;-78
2022/11/08 11:43:42;;;;;;;4.78;1.83;;;15.40;1.00;;;;;;4999290;28;20023;-77
2022/11/08 11:46:10;;;;;;;2.28;1.42;;;15.40;1.00;;;;;;4998146;28;20022;-77
2022/11/08 11:48:43;;;;;;;3.70;1.60;;;15.60;1.00;;;;;;4996181;28;20029;-78
2022/11/08 11:51:12;;;;;;;4.30;1.30;;;15.40;1.00;;;;;;4994275;28;20488;-78
2022/11/08 11:53:40;;;;;;;4.03;1.77;;;15.20;1.00;;;;;;4997311;28;20072;-77
2022/11/08 11:56:18;;;;;;;3.42;1.67;;;15.10;1.00;;;;;;4994483;28;20034;-78
2022/11/08 11:59:08;;;;;;;3.28;1.40;;;15.10;1.00;;;;;;5001915;28;20145;-78
2022/11/08 12:02:03;;;;;;;3.13;1.48;;;15.20;1.00;;;;;;4999875;28;20033;-78
2022/11/08 12:04:37;;;;;;;5.20;1.58;;;15.20;1.00;;;;;;5003556;28;20108;-78
2022/11/08 12:07:26;;;;;;;2.65;1.23;;;15.20;1.00;;;;;;5001837;28;20531;-78
2022/11/08 12:10:25;;;;;;;1.60;1.35;;;15.10;1.00;;;;;;5002533;28;20023;-78
2022/11/08 12:13:07;;;;;;;3.95;1.63;;;15.10;1.00;;;;;;5005971;28;20113;-78
2022/11/08 12:15:51;;;;;;;5.15;1.90;;;15.10;1.00;;;;;;5001952;28;20029;-78
2022/11/08 12:18:48;;;;;;;4.18;1.48;;;15.00;1.00;;;;;;5008375;28;20034;-78
2022/11/08 12:21:24;;;;;;;4.15;1.52;;;15.10;1.00;;;;;;5006192;28;20021;-77
2022/11/08 12:23:54;;;;;;;3.95;1.58;;;15.10;1.00;;;;;;5009718;28;20397;-77
2022/11/08 12:26:39;;;;;;;2.95;1.38;;;15.20;1.00;;;;;;5000175;28;20029;-77
2022/11/08 12:29:19;;;;;;;3.53;1.50;;;15.10;1.00;;;;;;5004930;28;20141;-77
2022/11/08 12:32:06;;;;;;;4.28;1.40;;;15.10;1.00;;;;;;4999293;28;20026;-77
2022/11/08 12:34:48;;;;;;;1.92;1.50;;;15.10;1.00;;;;;;5007795;28;20033;-77
2022/11/08 12:37:49;;;;;;;3.95;1.50;;;15.10;1.00;;;;;;4998759;28;20023;-77
2022/11/08 12:40:37;;;;;;;3.63;2.17;;;15.20;1.00;;;;;;4993762;28;21304;-77
2022/11/08 12:43:27;;;;;;;2.53;1.48;;;15.30;1.00;;;;;;5000310;28;20065;-77
2022/11/08 12:46:12;;;;;;;;;;;15.20;1.00;;;;;;5011194;28;20029;-77
2022/11/08 12:48:56;;;;;;;5.00;1.63;;;15.10;1.00;;;;;;5003188;28;20357;-77
2022/11/08 12:51:42;;;;;;;3.00;1.35;;;15.10;1.00;;;;;;5008602;28;20019;-77
2022/11/08 12:54:11;;;;;;;3.35;1.60;;;15.10;1.00;;;;;;5002068;28;20038;-77
2022/11/08 12:56:43;;;;;;;2.65;1.65;;;15.10;1.00;;;;;;4995725;28;20014;-77
2022/11/08 12:59:25;;;;;;;2.33;1.52;;;15.10;1.00;;;;;;5003272;28;20045;-77
2022/11/08 13:01:52;;;;;;;3.05;1.50;;;15.00;1.00;;;;;;5010619;28;20483;-77
2022/11/08 13:04:27;;;;;;;2.67;1.58;;;15.00;1.00;;;;;;5013583;28;20497;-77
2022/11/08 13:07:17;;;;;;;2.28;1.60;;;14.80;1.00;;;;;;5011444;28;20170;-77
2022/11/08 13:10:03;;;;;;;3.58;1.77;;;14.80;1.00;;;;;;5009867;28;20165;-77
2022/11/08 13:12:50;;;;;;;2.20;1.48;;;14.70;1.00;;;;;;5008599;28;20477;-77
2022/11/08 13:15:19;;;;;;;2.58;1.45;;;14.60;1.00;;;;;;5008189;28;20456;-77
2022/11/08 13:18:06;;;;;;;5.72;1.92;;;14.50;1.00;;;;;;5012781;28;20476;-77
2022/11/08 13:20:48;;;;;;;1.95;1.60;;;14.40;1.00;;;;;;5008078;28;20033;-77
2022/11/08 13:23:20;;;;;;;3.13;1.67;;;14.30;1.00;;;;;;5007291;28;20088;-77
2022/11/08 13:25:47;;;;;;;2.65;1.70;;;14.30;1.00;;;;;;5002615;28;20077;-77
2022/11/08 13:28:36;;;;;;;3.53;1.58;;;14.10;1.00;;;;;;5011207;28;20033;-77
2022/11/08 13:31:30;;;;;;;4.18;1.85;;;14.10;1.00;;;;;;5009790;28;20104;-77